sensor_id;sensor_type;location;lat;lon;timestamp;temperature;humidity
1005;DHT22;491;53.480;10.174;2023-01-16T00:00:17;5.50;99.90
1005;DHT22;491;53.480;10.174;2023-01-16T00:02:43;5.50;99.90
1005;DHT22;491;53.480;10.174;2023-01-16T00:05:09;5.40;99.90
1005;DHT22;491;53.480;10.174;2023-01-16T00:07:34;5.50;99.90
1005;DHT22;491;53.480;10.174;2023-01-16T00:10:00;5.40;99.90
1005;DHT22;491;53.480;10.174;2023-01-16T00:12:28;5.40;99.90
1005;DHT22;491;53.480;10.174;2023-01-16T00:14:53;5.50;99.90
1005;DHT22;491;53.480;10.174;2023-01-16T00:17:19;5.50;99.90
1005;DHT22;491;53.480;10.174;2023-01-16T00:19:44;5.50;99.90
1005;DHT22;491;53.480;10.174;2023-01-16T00:22:10;5.50;99.90
1005;DHT22;491;53.480;10.174;2023-01-16T00:24:35;5.50;99.90
1005;DHT22;491;53.480;10.174;2023-01-16T00:27:01;5.50;99.90
1005;DHT22;491;53.480;10.174;2023-01-16T00:29:26;5.60;99.90
1005;DHT22;491;53.480;10.174;2023-01-16T00:31:52;5.50;99.90
1005;DHT22;491;53.480;10.174;2023-01-16T00:34:17;5.60;99.90
1005;DHT22;491;53.480;10.174;2023-01-16T00:36:43;5.60;99.90
1005;DHT22;491;53.480;10.174;2023-01-16T00:39:12;5.60;99.90
1005;DHT22;491;53.480;10.174;2023-01-16T00:41:37;5.60;99.90
1005;DHT22;491;53.480;10.174;2023-01-16T00:44:06;5.60;99.90
1005;DHT22;491;53.480;10.174;2023-01-16T00:46:31;5.60;99.90
1005;DHT22;491;53.480;10.174;2023-01-16T00:48:57;5.60;99.90
1005;DHT22;491;53.480;10.174;2023-01-16T00:51:22;5.60;99.90
1005;DHT22;491;53.480;10.174;2023-01-16T00:53:48;5.60;99.90
1005;DHT22;491;53.480;10.174;2023-01-16T00:56:13;5.60;99.90
1005;DHT22;491;53.480;10.174;2023-01-16T00:58:39;5.60;99.90
1005;DHT22;491;53.480;10.174;2023-01-16T01:01:04;5.60;99.90
1005;DHT22;491;53.480;10.174;2023-01-16T01:03:30;5.60;99.90
1005;DHT22;491;53.480;10.174;2023-01-16T01:05:56;5.70;99.90
1005;DHT22;491;53.480;10.174;2023-01-16T01:08:23;5.60;99.90
1005;DHT22;491;53.480;10.174;2023-01-16T01:11:11;5.70;99.90
1005;DHT22;491;53.480;10.174;2023-01-16T01:13:48;5.60;99.90
1005;DHT22;491;53.480;10.174;2023-01-16T01:16:18;5.50;99.90
1005;DHT22;491;53.480;10.174;2023-01-16T01:18:44;5.60;99.90
1005;DHT22;491;53.480;10.174;2023-01-16T01:21:10;5.60;99.90
1005;DHT22;491;53.480;10.174;2023-01-16T01:23:36;5.60;99.90
1005;DHT22;491;53.480;10.174;2023-01-16T01:26:06;5.60;99.90
1005;DHT22;491;53.480;10.174;2023-01-16T01:28:32;5.60;99.90
1005;DHT22;491;53.480;10.174;2023-01-16T01:31:02;5.60;99.90
1005;DHT22;491;53.480;10.174;2023-01-16T01:33:28;5.60;99.90
1005;DHT22;491;53.480;10.174;2023-01-16T01:35:53;5.60;99.90
1005;DHT22;491;53.480;10.174;2023-01-16T01:38:19;5.60;99.90
1005;DHT22;491;53.480;10.174;2023-01-16T01:40:45;5.50;99.90
1005;DHT22;491;53.480;10.174;2023-01-16T01:49:21;5.50;99.90
1005;DHT22;491;53.480;10.174;2023-01-16T01:52:14;5.40;99.90
1005;DHT22;491;53.480;10.174;2023-01-16T01:54:45;5.20;99.90
1005;DHT22;491;53.480;10.174;2023-01-16T01:57:26;5.20;99.90
1005;DHT22;491;53.480;10.174;2023-01-16T02:00:00;4.80;99.90
1005;DHT22;491;53.480;10.174;2023-01-16T02:02:33;4.80;99.90
1005;DHT22;491;53.480;10.174;2023-01-16T02:04:59;4.90;99.90
1005;DHT22;491;53.480;10.174;2023-01-16T02:07:30;5.00;99.90
1005;DHT22;491;53.480;10.174;2023-01-16T02:10:03;5.00;99.90
1005;DHT22;491;53.480;10.174;2023-01-16T02:12:31;5.00;99.90
1005;DHT22;491;53.480;10.174;2023-01-16T02:14:57;4.90;99.90
1005;DHT22;491;53.480;10.174;2023-01-16T02:17:33;4.90;99.90
1005;DHT22;491;53.480;10.174;2023-01-16T02:20:21;4.90;99.90
1005;DHT22;491;53.480;10.174;2023-01-16T02:32:10;4.70;99.90
1005;DHT22;491;53.480;10.174;2023-01-16T02:40:09;4.60;99.90
1005;DHT22;491;53.480;10.174;2023-01-16T02:42:55;4.60;99.90
1005;DHT22;491;53.480;10.174;2023-01-16T02:48:31;4.50;99.90
1005;DHT22;491;53.480;10.174;2023-01-16T02:54:11;4.60;99.90
1005;DHT22;491;53.480;10.174;2023-01-16T02:57:03;4.50;99.90
1005;DHT22;491;53.480;10.174;2023-01-16T02:59:32;4.60;99.90
1005;DHT22;491;53.480;10.174;2023-01-16T03:01:58;4.60;99.90
1005;DHT22;491;53.480;10.174;2023-01-16T03:10:29;4.70;99.90
1005;DHT22;491;53.480;10.174;2023-01-16T03:13:18;4.70;99.90
1005;DHT22;491;53.480;10.174;2023-01-16T03:19:16;4.70;99.90
1005;DHT22;491;53.480;10.174;2023-01-16T03:22:11;4.80;99.90
1005;DHT22;491;53.480;10.174;2023-01-16T03:25:18;4.80;99.90
1005;DHT22;491;53.480;10.174;2023-01-16T03:28:05;4.80;99.90
1005;DHT22;491;53.480;10.174;2023-01-16T03:33:13;4.80;99.90
1005;DHT22;491;53.480;10.174;2023-01-16T03:38:56;4.90;99.90
1005;DHT22;491;53.480;10.174;2023-01-16T03:41:25;5.00;99.90
1005;DHT22;491;53.480;10.174;2023-01-16T03:43:58;4.90;99.90
1005;DHT22;491;53.480;10.174;2023-01-16T03:46:37;4.90;99.90
1005;DHT22;491;53.480;10.174;2023-01-16T03:49:08;4.80;99.90
1005;DHT22;491;53.480;10.174;2023-01-16T03:51:39;4.80;99.90
1005;DHT22;491;53.480;10.174;2023-01-16T03:57:13;4.80;99.90
1005;DHT22;491;53.480;10.174;2023-01-16T03:59:40;4.80;99.90
1005;DHT22;491;53.480;10.174;2023-01-16T04:02:25;4.80;99.90
1005;DHT22;491;53.480;10.174;2023-01-16T04:05:10;4.80;99.90
1005;DHT22;491;53.480;10.174;2023-01-16T04:07:53;4.90;99.90
1005;DHT22;491;53.480;10.174;2023-01-16T04:10:35;4.80;99.90
1005;DHT22;491;53.480;10.174;2023-01-16T04:13:06;4.90;99.90
1005;DHT22;491;53.480;10.174;2023-01-16T04:15:34;4.80;99.90
1005;DHT22;491;53.480;10.174;2023-01-16T04:18:00;4.90;99.90
1005;DHT22;491;53.480;10.174;2023-01-16T04:20:28;4.90;99.90
1005;DHT22;491;53.480;10.174;2023-01-16T04:22:54;4.90;99.90
1005;DHT22;491;53.480;10.174;2023-01-16T04:25:20;4.90;99.90
1005;DHT22;491;53.480;10.174;2023-01-16T04:27:46;4.90;99.90
1005;DHT22;491;53.480;10.174;2023-01-16T04:30:12;4.90;99.90
1005;DHT22;491;53.480;10.174;2023-01-16T04:32:42;4.90;99.90
1005;DHT22;491;53.480;10.174;2023-01-16T04:35:08;5.00;99.90
1005;DHT22;491;53.480;10.174;2023-01-16T04:37:34;5.00;99.90
1005;DHT22;491;53.480;10.174;2023-01-16T04:40:00;4.90;99.90
1005;DHT22;491;53.480;10.174;2023-01-16T04:42:26;5.00;99.90
1005;DHT22;491;53.480;10.174;2023-01-16T04:44:52;5.00;99.90
1005;DHT22;491;53.480;10.174;2023-01-16T04:47:17;5.00;99.90
1005;DHT22;491;53.480;10.174;2023-01-16T04:49:42;5.00;99.90
1005;DHT22;491;53.480;10.174;2023-01-16T04:52:09;4.90;99.90
1005;DHT22;491;53.480;10.174;2023-01-16T04:54:35;4.90;99.90
1005;DHT22;491;53.480;10.174;2023-01-16T04:57:01;4.90;99.90
1005;DHT22;491;53.480;10.174;2023-01-16T04:59:27;4.80;99.90
1005;DHT22;491;53.480;10.174;2023-01-16T05:01:52;4.90;99.90
1005;DHT22;491;53.480;10.174;2023-01-16T05:04:18;4.90;99.90
1005;DHT22;491;53.480;10.174;2023-01-16T05:06:43;4.90;99.90
1005;DHT22;491;53.480;10.174;2023-01-16T05:09:09;4.90;99.90
1005;DHT22;491;53.480;10.174;2023-01-16T05:11:35;4.90;99.90
1005;DHT22;491;53.480;10.174;2023-01-16T05:14:00;4.90;99.90
1005;DHT22;491;53.480;10.174;2023-01-16T05:16:26;4.90;99.90
1005;DHT22;491;53.480;10.174;2023-01-16T05:18:52;4.90;99.90
1005;DHT22;491;53.480;10.174;2023-01-16T05:21:17;4.90;99.90
1005;DHT22;491;53.480;10.174;2023-01-16T05:23:46;4.90;99.90
1005;DHT22;491;53.480;10.174;2023-01-16T05:26:12;4.90;99.90
1005;DHT22;491;53.480;10.174;2023-01-16T05:28:37;4.90;99.90
1005;DHT22;491;53.480;10.174;2023-01-16T05:31:03;4.90;99.90
1005;DHT22;491;53.480;10.174;2023-01-16T05:33:29;4.80;99.90
1005;DHT22;491;53.480;10.174;2023-01-16T05:35:55;4.80;99.90
1005;DHT22;491;53.480;10.174;2023-01-16T05:38:21;4.80;99.90
1005;DHT22;491;53.480;10.174;2023-01-16T05:40:47;4.80;99.90
1005;DHT22;491;53.480;10.174;2023-01-16T05:43:13;4.80;99.90
1005;DHT22;491;53.480;10.174;2023-01-16T05:45:38;4.80;99.90
1005;DHT22;491;53.480;10.174;2023-01-16T05:48:04;4.80;99.90
1005;DHT22;491;53.480;10.174;2023-01-16T05:50:30;4.80;99.90
1005;DHT22;491;53.480;10.174;2023-01-16T05:52:56;4.80;99.90
1005;DHT22;491;53.480;10.174;2023-01-16T05:55:22;4.70;99.90
1005;DHT22;491;53.480;10.174;2023-01-16T05:57:47;4.60;99.90
1005;DHT22;491;53.480;10.174;2023-01-16T06:00:13;4.70;99.90
1005;DHT22;491;53.480;10.174;2023-01-16T06:02:39;4.70;99.90
1005;DHT22;491;53.480;10.174;2023-01-16T06:05:05;4.70;99.90
1005;DHT22;491;53.480;10.174;2023-01-16T06:07:31;4.60;99.90
1005;DHT22;491;53.480;10.174;2023-01-16T06:09:56;4.60;99.90
1005;DHT22;491;53.480;10.174;2023-01-16T06:12:22;4.50;99.90
1005;DHT22;491;53.480;10.174;2023-01-16T06:14:47;4.50;99.90
1005;DHT22;491;53.480;10.174;2023-01-16T06:17:13;4.40;99.90
1005;DHT22;491;53.480;10.174;2023-01-16T06:19:40;4.40;99.90
1005;DHT22;491;53.480;10.174;2023-01-16T06:22:06;4.40;99.90
1005;DHT22;491;53.480;10.174;2023-01-16T06:24:31;4.50;99.90
1005;DHT22;491;53.480;10.174;2023-01-16T06:26:57;4.50;99.90
1005;DHT22;491;53.480;10.174;2023-01-16T06:29:22;4.50;99.90
1005;DHT22;491;53.480;10.174;2023-01-16T06:31:48;4.50;99.90
1005;DHT22;491;53.480;10.174;2023-01-16T06:34:13;4.50;99.90
1005;DHT22;491;53.480;10.174;2023-01-16T06:36:39;4.50;99.90
1005;DHT22;491;53.480;10.174;2023-01-16T06:39:07;4.50;99.90
1005;DHT22;491;53.480;10.174;2023-01-16T06:41:32;4.50;99.90
1005;DHT22;491;53.480;10.174;2023-01-16T06:44:04;4.50;99.90
1005;DHT22;491;53.480;10.174;2023-01-16T06:46:30;4.60;99.90
1005;DHT22;491;53.480;10.174;2023-01-16T06:48:55;4.60;99.90
1005;DHT22;491;53.480;10.174;2023-01-16T06:51:24;4.60;99.90
1005;DHT22;491;53.480;10.174;2023-01-16T06:53:49;4.60;99.90
1005;DHT22;491;53.480;10.174;2023-01-16T06:56:16;4.70;99.90
1005;DHT22;491;53.480;10.174;2023-01-16T06:58:42;4.60;99.90
1005;DHT22;491;53.480;10.174;2023-01-16T07:01:08;4.70;99.90
1005;DHT22;491;53.480;10.174;2023-01-16T07:03:34;4.70;99.90
1005;DHT22;491;53.480;10.174;2023-01-16T07:06:00;4.70;99.90
1005;DHT22;491;53.480;10.174;2023-01-16T07:08:35;4.70;99.90
1005;DHT22;491;53.480;10.174;2023-01-16T07:11:11;4.70;99.90
1005;DHT22;491;53.480;10.174;2023-01-16T07:13:38;4.70;99.90
1005;DHT22;491;53.480;10.174;2023-01-16T07:16:05;4.70;99.90
1005;DHT22;491;53.480;10.174;2023-01-16T07:18:50;4.70;99.90
1005;DHT22;491;53.480;10.174;2023-01-16T07:21:34;4.60;99.90
1005;DHT22;491;53.480;10.174;2023-01-16T07:24:22;4.60;99.90
1005;DHT22;491;53.480;10.174;2023-01-16T07:26:55;4.50;99.90
1005;DHT22;491;53.480;10.174;2023-01-16T07:29:23;4.60;99.90
1005;DHT22;491;53.480;10.174;2023-01-16T07:31:49;4.60;99.90
1005;DHT22;491;53.480;10.174;2023-01-16T07:34:14;5.10;99.90
1005;DHT22;491;53.480;10.174;2023-01-16T07:36:40;4.50;99.90
1005;DHT22;491;53.480;10.174;2023-01-16T07:39:05;4.50;99.90
1005;DHT22;491;53.480;10.174;2023-01-16T07:41:31;4.40;99.90
1005;DHT22;491;53.480;10.174;2023-01-16T07:43:56;4.30;99.90
1005;DHT22;491;53.480;10.174;2023-01-16T07:46:23;4.30;99.90
1005;DHT22;491;53.480;10.174;2023-01-16T07:48:48;4.40;99.90
1005;DHT22;491;53.480;10.174;2023-01-16T07:51:16;4.30;99.90
1005;DHT22;491;53.480;10.174;2023-01-16T07:53:42;4.30;99.90
1005;DHT22;491;53.480;10.174;2023-01-16T07:56:08;4.30;99.90
1005;DHT22;491;53.480;10.174;2023-01-16T07:58:33;4.30;99.90
1005;DHT22;491;53.480;10.174;2023-01-16T08:00:59;4.20;99.90
1005;DHT22;491;53.480;10.174;2023-01-16T08:03:30;4.20;99.90
1005;DHT22;491;53.480;10.174;2023-01-16T08:05:56;4.20;99.90
1005;DHT22;491;53.480;10.174;2023-01-16T08:08:22;4.10;99.90
1005;DHT22;491;53.480;10.174;2023-01-16T08:10:53;4.20;99.90
1005;DHT22;491;53.480;10.174;2023-01-16T08:13:19;4.10;99.90
1005;DHT22;491;53.480;10.174;2023-01-16T08:15:44;4.30;99.90
1005;DHT22;491;53.480;10.174;2023-01-16T08:18:11;4.30;99.90
1005;DHT22;491;53.480;10.174;2023-01-16T08:20:40;4.30;99.90
1005;DHT22;491;53.480;10.174;2023-01-16T08:23:07;4.40;99.90
1005;DHT22;491;53.480;10.174;2023-01-16T08:25:32;4.70;99.90
1005;DHT22;491;53.480;10.174;2023-01-16T08:27:58;4.60;99.90
1005;DHT22;491;53.480;10.174;2023-01-16T08:30:23;5.00;99.90
1005;DHT22;491;53.480;10.174;2023-01-16T08:32:49;5.00;99.90
1005;DHT22;491;53.480;10.174;2023-01-16T08:35:15;4.90;99.90
1005;DHT22;491;53.480;10.174;2023-01-16T08:37:48;5.00;99.90
1005;DHT22;491;53.480;10.174;2023-01-16T08:40:14;5.20;99.90
1005;DHT22;491;53.480;10.174;2023-01-16T08:42:39;5.40;99.90
1005;DHT22;491;53.480;10.174;2023-01-16T08:45:23;5.80;5.60
1005;DHT22;491;53.480;10.174;2023-01-16T08:48:09;6.40;1.00
1005;DHT22;491;53.480;10.174;2023-01-16T08:50:54;6.70;1.00
1005;DHT22;491;53.480;10.174;2023-01-16T08:53:40;7.00;99.90
1005;DHT22;491;53.480;10.174;2023-01-16T08:56:05;6.90;99.90
1005;DHT22;491;53.480;10.174;2023-01-16T08:58:31;7.10;1.00
1005;DHT22;491;53.480;10.174;2023-01-16T09:00:57;7.20;1.00
1005;DHT22;491;53.480;10.174;2023-01-16T09:03:28;7.00;99.90
1005;DHT22;491;53.480;10.174;2023-01-16T09:05:54;7.70;1.00
1005;DHT22;491;53.480;10.174;2023-01-16T09:08:22;7.90;1.00
1005;DHT22;491;53.480;10.174;2023-01-16T09:10:47;7.60;99.90
1005;DHT22;491;53.480;10.174;2023-01-16T09:13:32;7.00;1.00
1005;DHT22;491;53.480;10.174;2023-01-16T09:18:46;5.80;39.30
1005;DHT22;491;53.480;10.174;2023-01-16T09:21:12;5.50;99.90
1005;DHT22;491;53.480;10.174;2023-01-16T09:23:37;5.40;99.90
1005;DHT22;491;53.480;10.174;2023-01-16T09:26:03;5.40;99.90
1005;DHT22;491;53.480;10.174;2023-01-16T09:28:28;5.40;99.90
1005;DHT22;491;53.480;10.174;2023-01-16T09:30:54;5.20;99.90
1005;DHT22;491;53.480;10.174;2023-01-16T09:33:19;5.30;99.90
1005;DHT22;491;53.480;10.174;2023-01-16T09:35:44;5.10;99.90
1005;DHT22;491;53.480;10.174;2023-01-16T09:38:10;5.10;99.90
1005;DHT22;491;53.480;10.174;2023-01-16T09:40:36;5.00;99.90
1005;DHT22;491;53.480;10.174;2023-01-16T09:46:12;5.20;99.90
1005;DHT22;491;53.480;10.174;2023-01-16T09:51:31;5.20;99.90
1005;DHT22;491;53.480;10.174;2023-01-16T09:54:09;5.10;99.90
1005;DHT22;491;53.480;10.174;2023-01-16T09:57:00;5.20;99.90
1005;DHT22;491;53.480;10.174;2023-01-16T09:59:49;5.10;99.90
1005;DHT22;491;53.480;10.174;2023-01-16T10:02:20;5.10;99.90
1005;DHT22;491;53.480;10.174;2023-01-16T10:04:48;5.20;99.90
1005;DHT22;491;53.480;10.174;2023-01-16T10:07:48;5.20;99.90
1005;DHT22;491;53.480;10.174;2023-01-16T10:10:40;5.30;99.90
1005;DHT22;491;53.480;10.174;2023-01-16T10:14:07;5.50;99.90
1005;DHT22;491;53.480;10.174;2023-01-16T10:30:17;5.50;99.90
1005;DHT22;491;53.480;10.174;2023-01-16T10:33:08;5.60;99.90
1005;DHT22;491;53.480;10.174;2023-01-16T10:35:40;5.80;99.90
1005;DHT22;491;53.480;10.174;2023-01-16T10:38:39;5.80;99.90
1005;DHT22;491;53.480;10.174;2023-01-16T10:41:29;6.20;1.00
1005;DHT22;491;53.480;10.174;2023-01-16T10:44:27;6.90;99.90
1005;DHT22;491;53.480;10.174;2023-01-16T10:47:13;7.20;1.00
1005;DHT22;491;53.480;10.174;2023-01-16T10:49:58;7.40;99.90
1005;DHT22;491;53.480;10.174;2023-01-16T10:52:23;7.40;1.00
1005;DHT22;491;53.480;10.174;2023-01-16T10:54:51;7.20;1.00
1005;DHT22;491;53.480;10.174;2023-01-16T10:57:19;7.20;80.00
1005;DHT22;491;53.480;10.174;2023-01-16T10:59:47;6.90;99.90
1005;DHT22;491;53.480;10.174;2023-01-16T11:02:39;7.10;99.90
1005;DHT22;491;53.480;10.174;2023-01-16T11:05:22;7.30;99.90
1005;DHT22;491;53.480;10.174;2023-01-16T11:07:48;7.60;1.00
1005;DHT22;491;53.480;10.174;2023-01-16T11:10:14;7.70;99.90
1005;DHT22;491;53.480;10.174;2023-01-16T11:12:40;7.40;1.00
1005;DHT22;491;53.480;10.174;2023-01-16T11:15:24;7.10;1.00
1005;DHT22;491;53.480;10.174;2023-01-16T11:20:53;6.90;1.00
1005;DHT22;491;53.480;10.174;2023-01-16T11:23:22;6.80;1.00
1005;DHT22;491;53.480;10.174;2023-01-16T11:25:50;6.60;1.00
1005;DHT22;491;53.480;10.174;2023-01-16T11:28:26;6.60;1.00
1005;DHT22;491;53.480;10.174;2023-01-16T11:30:59;6.60;1.00
1005;DHT22;491;53.480;10.174;2023-01-16T11:33:32;6.60;1.00
1005;DHT22;491;53.480;10.174;2023-01-16T11:36:01;6.60;1.00
1005;DHT22;491;53.480;10.174;2023-01-16T11:38:29;6.60;1.00
1005;DHT22;491;53.480;10.174;2023-01-16T11:41:00;6.60;1.00
1005;DHT22;491;53.480;10.174;2023-01-16T11:43:27;6.70;1.00
1005;DHT22;491;53.480;10.174;2023-01-16T11:48:55;6.60;1.00
1005;DHT22;491;53.480;10.174;2023-01-16T11:51:24;6.50;1.00
1005;DHT22;491;53.480;10.174;2023-01-16T11:53:52;6.60;1.00
1005;DHT22;491;53.480;10.174;2023-01-16T11:56:49;6.80;1.00
1005;DHT22;491;53.480;10.174;2023-01-16T12:05:18;7.30;1.00
1005;DHT22;491;53.480;10.174;2023-01-16T12:13:12;7.30;99.90
1005;DHT22;491;53.480;10.174;2023-01-16T12:16:30;7.20;1.00
1005;DHT22;491;53.480;10.174;2023-01-16T12:19:28;7.00;99.90
1005;DHT22;491;53.480;10.174;2023-01-16T12:27:16;6.70;99.90
1005;DHT22;491;53.480;10.174;2023-01-16T12:37:54;7.00;1.00
1005;DHT22;491;53.480;10.174;2023-01-16T12:45:57;7.50;99.90
1005;DHT22;491;53.480;10.174;2023-01-16T12:54:02;6.70;58.50
1005;DHT22;491;53.480;10.174;2023-01-16T12:59:20;6.60;99.90
1005;DHT22;491;53.480;10.174;2023-01-16T13:01:51;6.40;99.90
1005;DHT22;491;53.480;10.174;2023-01-16T13:04:33;6.40;99.90
1005;DHT22;491;53.480;10.174;2023-01-16T13:07:00;6.50;1.00
1005;DHT22;491;53.480;10.174;2023-01-16T13:12:03;6.30;99.90
1005;DHT22;491;53.480;10.174;2023-01-16T13:14:53;6.30;99.90
1005;DHT22;491;53.480;10.174;2023-01-16T13:17:25;6.30;1.00
1005;DHT22;491;53.480;10.174;2023-01-16T13:19:53;6.30;1.00
1005;DHT22;491;53.480;10.174;2023-01-16T13:22:43;6.20;1.00
1005;DHT22;491;53.480;10.174;2023-01-16T13:25:34;6.20;1.00
1005;DHT22;491;53.480;10.174;2023-01-16T13:28:38;6.00;1.00
1005;DHT22;491;53.480;10.174;2023-01-16T13:31:33;6.20;1.00
1005;DHT22;491;53.480;10.174;2023-01-16T13:34:14;6.10;1.00
1005;DHT22;491;53.480;10.174;2023-01-16T13:42:27;6.10;1.00
1005;DHT22;491;53.480;10.174;2023-01-16T13:44:59;6.10;1.00
1005;DHT22;491;53.480;10.174;2023-01-16T13:47:45;6.10;1.00
1005;DHT22;491;53.480;10.174;2023-01-16T13:50:25;6.10;1.00
1005;DHT22;491;53.480;10.174;2023-01-16T13:53:01;6.10;1.00
1005;DHT22;491;53.480;10.174;2023-01-16T13:55:35;6.00;1.00
1005;DHT22;491;53.480;10.174;2023-01-16T13:58:14;6.10;1.00
1005;DHT22;491;53.480;10.174;2023-01-16T14:00:40;6.30;1.00
1005;DHT22;491;53.480;10.174;2023-01-16T14:03:27;6.10;1.00
1005;DHT22;491;53.480;10.174;2023-01-16T14:43:14;6.10;99.90
1005;DHT22;491;53.480;10.174;2023-01-16T14:49:43;6.20;99.90
1005;DHT22;491;53.480;10.174;2023-01-16T14:55:25;6.10;1.00
1005;DHT22;491;53.480;10.174;2023-01-16T14:57:55;6.10;99.90
1005;DHT22;491;53.480;10.174;2023-01-16T15:00:21;6.10;99.90
1005;DHT22;491;53.480;10.174;2023-01-16T15:03:07;6.00;1.00
1005;DHT22;491;53.480;10.174;2023-01-16T15:05:45;6.00;99.90
1005;DHT22;491;53.480;10.174;2023-01-16T15:08:24;6.00;99.90
1005;DHT22;491;53.480;10.174;2023-01-16T15:10:52;6.00;1.00
1005;DHT22;491;53.480;10.174;2023-01-16T15:13:29;6.00;1.00
1005;DHT22;491;53.480;10.174;2023-01-16T15:16:21;5.90;1.00
1005;DHT22;491;53.480;10.174;2023-01-16T15:19:19;5.90;1.00
1005;DHT22;491;53.480;10.174;2023-01-16T15:22:13;5.90;99.90
1005;DHT22;491;53.480;10.174;2023-01-16T15:24:41;5.90;1.00
1005;DHT22;491;53.480;10.174;2023-01-16T15:27:14;5.90;1.00
1005;DHT22;491;53.480;10.174;2023-01-16T15:29:50;5.90;1.00
1005;DHT22;491;53.480;10.174;2023-01-16T15:32:18;5.80;1.00
1005;DHT22;491;53.480;10.174;2023-01-16T15:34:47;5.90;1.00
1005;DHT22;491;53.480;10.174;2023-01-16T15:37:28;5.90;99.90
1005;DHT22;491;53.480;10.174;2023-01-16T15:39:54;5.80;1.00
1005;DHT22;491;53.480;10.174;2023-01-16T15:45:16;5.70;1.00
1005;DHT22;491;53.480;10.174;2023-01-16T15:48:32;5.70;1.00
1005;DHT22;491;53.480;10.174;2023-01-16T15:51:08;5.70;1.00
1005;DHT22;491;53.480;10.174;2023-01-16T15:53:40;5.70;1.00
1005;DHT22;491;53.480;10.174;2023-01-16T15:58:42;5.60;1.00
1005;DHT22;491;53.480;10.174;2023-01-16T16:01:08;5.60;1.00
1005;DHT22;491;53.480;10.174;2023-01-16T16:03:43;5.70;1.00
1005;DHT22;491;53.480;10.174;2023-01-16T16:06:13;5.70;1.00
1005;DHT22;491;53.480;10.174;2023-01-16T16:08:47;5.70;1.00
1005;DHT22;491;53.480;10.174;2023-01-16T16:11:25;5.70;1.00
1005;DHT22;491;53.480;10.174;2023-01-16T16:14:35;5.70;1.00
1005;DHT22;491;53.480;10.174;2023-01-16T16:17:28;5.70;1.00
1005;DHT22;491;53.480;10.174;2023-01-16T16:20:33;5.70;1.00
1005;DHT22;491;53.480;10.174;2023-01-16T16:23:17;5.70;1.00
1005;DHT22;491;53.480;10.174;2023-01-16T16:25:50;5.60;1.00
1005;DHT22;491;53.480;10.174;2023-01-16T16:28:28;5.60;1.00
1005;DHT22;491;53.480;10.174;2023-01-16T16:33:30;5.60;1.00
1005;DHT22;491;53.480;10.174;2023-01-16T16:35:59;5.60;1.00
1005;DHT22;491;53.480;10.174;2023-01-16T16:38:30;5.60;1.00
1005;DHT22;491;53.480;10.174;2023-01-16T16:43:48;5.50;1.00
1005;DHT22;491;53.480;10.174;2023-01-16T16:48:57;5.40;1.00
1005;DHT22;491;53.480;10.174;2023-01-16T16:51:30;5.40;1.00
1005;DHT22;491;53.480;10.174;2023-01-16T16:54:06;5.40;1.00
1005;DHT22;491;53.480;10.174;2023-01-16T16:56:37;5.40;1.00
1005;DHT22;491;53.480;10.174;2023-01-16T16:59:03;5.30;1.00
1005;DHT22;491;53.480;10.174;2023-01-16T17:01:29;5.30;1.00
1005;DHT22;491;53.480;10.174;2023-01-16T17:03:57;5.30;1.00
1005;DHT22;491;53.480;10.174;2023-01-16T17:06:33;5.40;1.00
1005;DHT22;491;53.480;10.174;2023-01-16T17:09:08;5.30;1.00
1005;DHT22;491;53.480;10.174;2023-01-16T17:11:35;5.30;1.00
1005;DHT22;491;53.480;10.174;2023-01-16T17:14:00;5.30;1.00
1005;DHT22;491;53.480;10.174;2023-01-16T17:16:27;5.30;1.00
1005;DHT22;491;53.480;10.174;2023-01-16T17:18:59;5.20;1.00
1005;DHT22;491;53.480;10.174;2023-01-16T17:21:25;5.20;1.00
1005;DHT22;491;53.480;10.174;2023-01-16T17:23:51;5.30;1.00
1005;DHT22;491;53.480;10.174;2023-01-16T17:26:17;5.20;1.00
1005;DHT22;491;53.480;10.174;2023-01-16T17:28:42;5.20;1.00
1005;DHT22;491;53.480;10.174;2023-01-16T17:31:13;5.20;1.00
1005;DHT22;491;53.480;10.174;2023-01-16T17:33:40;5.20;1.00
1005;DHT22;491;53.480;10.174;2023-01-16T17:36:06;5.20;1.00
1005;DHT22;491;53.480;10.174;2023-01-16T17:38:35;5.20;1.00
1005;DHT22;491;53.480;10.174;2023-01-16T17:41:01;5.20;1.00
1005;DHT22;491;53.480;10.174;2023-01-16T17:43:29;5.20;1.00
1005;DHT22;491;53.480;10.174;2023-01-16T17:46:15;5.10;10.40
1005;DHT22;491;53.480;10.174;2023-01-16T17:48:50;5.10;4.10
1005;DHT22;491;53.480;10.174;2023-01-16T17:51:17;5.00;24.70
1005;DHT22;491;53.480;10.174;2023-01-16T17:53:49;5.10;10.30
1005;DHT22;491;53.480;10.174;2023-01-16T17:56:16;5.20;1.00
1005;DHT22;491;53.480;10.174;2023-01-16T17:58:44;5.10;3.90
1005;DHT22;491;53.480;10.174;2023-01-16T18:01:11;5.10;1.00
1005;DHT22;491;53.480;10.174;2023-01-16T18:03:38;5.10;1.00
1005;DHT22;491;53.480;10.174;2023-01-16T18:06:05;5.10;1.00
1005;DHT22;491;53.480;10.174;2023-01-16T18:08:31;5.10;1.00
1005;DHT22;491;53.480;10.174;2023-01-16T18:11:01;5.10;1.00
1005;DHT22;491;53.480;10.174;2023-01-16T18:13:48;5.20;1.00
1005;DHT22;491;53.480;10.174;2023-01-16T18:16:32;5.20;1.00
1005;DHT22;491;53.480;10.174;2023-01-16T18:19:18;5.20;1.00
1005;DHT22;491;53.480;10.174;2023-01-16T18:21:43;5.30;1.00
1005;DHT22;491;53.480;10.174;2023-01-16T18:24:29;5.30;1.00
1005;DHT22;491;53.480;10.174;2023-01-16T18:26:56;5.40;1.00
1005;DHT22;491;53.480;10.174;2023-01-16T18:29:23;5.30;1.00
1005;DHT22;491;53.480;10.174;2023-01-16T18:31:48;5.30;1.00
1005;DHT22;491;53.480;10.174;2023-01-16T18:34:33;5.30;1.00
1005;DHT22;491;53.480;10.174;2023-01-16T18:36:58;5.40;1.00
1005;DHT22;491;53.480;10.174;2023-01-16T18:39:25;5.30;1.00
1005;DHT22;491;53.480;10.174;2023-01-16T18:42:10;5.30;1.00
1005;DHT22;491;53.480;10.174;2023-01-16T18:44:54;5.30;1.00
1005;DHT22;491;53.480;10.174;2023-01-16T18:47:38;5.30;1.00
1005;DHT22;491;53.480;10.174;2023-01-16T18:50:22;5.30;1.00
1005;DHT22;491;53.480;10.174;2023-01-16T18:53:36;5.30;1.00
1005;DHT22;491;53.480;10.174;2023-01-16T18:56:21;5.20;1.00
1005;DHT22;491;53.480;10.174;2023-01-16T18:59:16;5.20;1.00
1005;DHT22;491;53.480;10.174;2023-01-16T19:04:38;5.20;1.00
1005;DHT22;491;53.480;10.174;2023-01-16T19:09:47;5.10;1.00
1005;DHT22;491;53.480;10.174;2023-01-16T19:12:14;5.10;1.00
1005;DHT22;491;53.480;10.174;2023-01-16T19:14:41;5.10;1.00
1005;DHT22;491;53.480;10.174;2023-01-16T19:17:08;5.10;1.00
1005;DHT22;491;53.480;10.174;2023-01-16T19:19:33;5.10;1.00
1005;DHT22;491;53.480;10.174;2023-01-16T19:22:00;5.00;1.00
1005;DHT22;491;53.480;10.174;2023-01-16T19:24:26;5.10;1.00
1005;DHT22;491;53.480;10.174;2023-01-16T19:27:14;5.10;1.00
1005;DHT22;491;53.480;10.174;2023-01-16T19:29:39;5.10;1.00
1005;DHT22;491;53.480;10.174;2023-01-16T19:32:05;5.20;1.00
1005;DHT22;491;53.480;10.174;2023-01-16T19:34:31;5.20;1.00
1005;DHT22;491;53.480;10.174;2023-01-16T19:37:01;5.20;1.00
1005;DHT22;491;53.480;10.174;2023-01-16T19:39:30;5.20;1.00
1005;DHT22;491;53.480;10.174;2023-01-16T19:41:56;5.20;1.00
1005;DHT22;491;53.480;10.174;2023-01-16T19:44:40;5.20;1.00
1005;DHT22;491;53.480;10.174;2023-01-16T19:47:27;5.20;1.00
1005;DHT22;491;53.480;10.174;2023-01-16T19:49:54;5.20;1.00
1005;DHT22;491;53.480;10.174;2023-01-16T19:52:20;5.20;1.00
1005;DHT22;491;53.480;10.174;2023-01-16T19:54:50;5.10;1.00
1005;DHT22;491;53.480;10.174;2023-01-16T19:57:18;5.00;1.00
1005;DHT22;491;53.480;10.174;2023-01-16T19:59:46;5.10;1.00